sensor_id;sensor_type;location;lat;lon;timestamp;temperature;humidity
4960;DHT22;2495;48.200;11.532;2022-10-16T00:02:36;17.00;85.50
4960;DHT22;2495;48.200;11.532;2022-10-16T00:07:37;16.90;86.00
4960;DHT22;2495;48.200;11.532;2022-10-16T00:12:39;16.90;86.20
4960;DHT22;2495;48.200;11.532;2022-10-16T00:17:40;16.90;86.20
4960;DHT22;2495;48.200;11.532;2022-10-16T00:22:42;16.90;86.40
4960;DHT22;2495;48.200;11.532;2022-10-16T00:27:43;16.90;86.50
4960;DHT22;2495;48.200;11.532;2022-10-16T00:32:44;16.80;86.60
4960;DHT22;2495;48.200;11.532;2022-10-16T00:37:46;16.80;87.00
4960;DHT22;2495;48.200;11.532;2022-10-16T00:42:47;16.80;87.00
4960;DHT22;2495;48.200;11.532;2022-10-16T00:47:52;17.00;88.10
4960;DHT22;2495;48.200;11.532;2022-10-16T00:52:54;17.00;87.70
4960;DHT22;2495;48.200;11.532;2022-10-16T00:57:55;17.00;87.20
4960;DHT22;2495;48.200;11.532;2022-10-16T01:02:57;17.00;87.20
4960;DHT22;2495;48.200;11.532;2022-10-16T01:08:17;16.90;87.20
4960;DHT22;2495;48.200;11.532;2022-10-16T01:13:38;16.90;87.70
4960;DHT22;2495;48.200;11.532;2022-10-16T01:18:44;16.80;88.50
4960;DHT22;2495;48.200;11.532;2022-10-16T01:29:16;16.60;88.30
4960;DHT22;2495;48.200;11.532;2022-10-16T01:34:17;16.60;87.60
4960;DHT22;2495;48.200;11.532;2022-10-16T01:39:18;16.60;87.90
4960;DHT22;2495;48.200;11.532;2022-10-16T01:44:23;16.60;87.80
4960;DHT22;2495;48.200;11.532;2022-10-16T01:49:24;16.50;88.40
4960;DHT22;2495;48.200;11.532;2022-10-16T01:54:27;16.50;87.80
4960;DHT22;2495;48.200;11.532;2022-10-16T01:59:29;16.50;88.50
4960;DHT22;2495;48.200;11.532;2022-10-16T02:04:32;16.50;88.00
4960;DHT22;2495;48.200;11.532;2022-10-16T02:09:34;16.60;88.30
4960;DHT22;2495;48.200;11.532;2022-10-16T02:14:37;16.60;88.60
4960;DHT22;2495;48.200;11.532;2022-10-16T02:19:37;16.50;88.10
4960;DHT22;2495;48.200;11.532;2022-10-16T02:24:43;16.60;88.10
4960;DHT22;2495;48.200;11.532;2022-10-16T02:29:41;16.50;88.10
4960;DHT22;2495;48.200;11.532;2022-10-16T02:34:42;16.50;88.20
4960;DHT22;2495;48.200;11.532;2022-10-16T02:39:44;16.40;88.20
4960;DHT22;2495;48.200;11.532;2022-10-16T02:44:45;16.40;88.10
4960;DHT22;2495;48.200;11.532;2022-10-16T02:49:46;16.50;88.00
4960;DHT22;2495;48.200;11.532;2022-10-16T02:54:48;16.40;88.20
4960;DHT22;2495;48.200;11.532;2022-10-16T02:59:50;16.40;88.10
4960;DHT22;2495;48.200;11.532;2022-10-16T03:04:51;16.40;88.00
4960;DHT22;2495;48.200;11.532;2022-10-16T03:09:53;16.30;88.20
4960;DHT22;2495;48.200;11.532;2022-10-16T03:14:57;16.30;88.40
4960;DHT22;2495;48.200;11.532;2022-10-16T03:20:01;16.50;90.00
4960;DHT22;2495;48.200;11.532;2022-10-16T03:25:03;16.60;88.60
4960;DHT22;2495;48.200;11.532;2022-10-16T03:30:07;16.60;88.70
4960;DHT22;2495;48.200;11.532;2022-10-16T03:35:09;16.50;88.60
4960;DHT22;2495;48.200;11.532;2022-10-16T03:40:10;16.50;88.00
4960;DHT22;2495;48.200;11.532;2022-10-16T03:45:15;16.50;88.00
4960;DHT22;2495;48.200;11.532;2022-10-16T03:50:16;16.50;88.50
4960;DHT22;2495;48.200;11.532;2022-10-16T03:55:18;16.50;88.00
4960;DHT22;2495;48.200;11.532;2022-10-16T04:00:20;16.60;88.30
4960;DHT22;2495;48.200;11.532;2022-10-16T04:05:21;16.50;87.80
4960;DHT22;2495;48.200;11.532;2022-10-16T04:10:23;16.60;87.70
4960;DHT22;2495;48.200;11.532;2022-10-16T04:15:25;16.60;87.80
4960;DHT22;2495;48.200;11.532;2022-10-16T04:20:26;16.60;87.60
4960;DHT22;2495;48.200;11.532;2022-10-16T04:25:28;16.60;87.20
4960;DHT22;2495;48.200;11.532;2022-10-16T04:30:30;16.50;88.40
4960;DHT22;2495;48.200;11.532;2022-10-16T04:35:32;16.50;87.80
4960;DHT22;2495;48.200;11.532;2022-10-16T04:40:33;16.50;87.30
4960;DHT22;2495;48.200;11.532;2022-10-16T04:45:34;16.50;87.90
4960;DHT22;2495;48.200;11.532;2022-10-16T04:50:36;16.50;87.90
4960;DHT22;2495;48.200;11.532;2022-10-16T04:55:37;16.50;87.40
4960;DHT22;2495;48.200;11.532;2022-10-16T05:00:39;16.50;87.70
4960;DHT22;2495;48.200;11.532;2022-10-16T05:05:43;16.50;87.70
4960;DHT22;2495;48.200;11.532;2022-10-16T05:10:45;16.60;88.60
4960;DHT22;2495;48.200;11.532;2022-10-16T05:15:47;16.50;87.50
4960;DHT22;2495;48.200;11.532;2022-10-16T05:20:47;16.40;88.00
4960;DHT22;2495;48.200;11.532;2022-10-16T05:25:56;16.60;89.20
4960;DHT22;2495;48.200;11.532;2022-10-16T05:30:56;16.60;88.70
4960;DHT22;2495;48.200;11.532;2022-10-16T05:36:08;16.60;88.10
4960;DHT22;2495;48.200;11.532;2022-10-16T05:41:09;16.50;88.60
4960;DHT22;2495;48.200;11.532;2022-10-16T05:46:10;16.30;87.70
4960;DHT22;2495;48.200;11.532;2022-10-16T05:51:12;16.30;87.70
4960;DHT22;2495;48.200;11.532;2022-10-16T05:56:13;16.30;88.10
4960;DHT22;2495;48.200;11.532;2022-10-16T06:01:16;16.20;88.20
4960;DHT22;2495;48.200;11.532;2022-10-16T06:06:25;16.30;89.60
4960;DHT22;2495;48.200;11.532;2022-10-16T06:11:29;16.40;88.60
4960;DHT22;2495;48.200;11.532;2022-10-16T06:16:36;16.30;88.80
4960;DHT22;2495;48.200;11.532;2022-10-16T06:21:38;16.20;88.80
4960;DHT22;2495;48.200;11.532;2022-10-16T06:26:43;16.20;88.30
4960;DHT22;2495;48.200;11.532;2022-10-16T06:58:55;16.20;90.10
4960;DHT22;2495;48.200;11.532;2022-10-16T07:04:43;16.20;89.20
4960;DHT22;2495;48.200;11.532;2022-10-16T07:17:11;16.20;89.50
4960;DHT22;2495;48.200;11.532;2022-10-16T09:35:16;27.20;62.90
4960;DHT22;2495;48.200;11.532;2022-10-16T14:44:43;26.40;46.70
4960;DHT22;2495;48.200;11.532;2022-10-16T14:49:44;26.10;46.60
4960;DHT22;2495;48.200;11.532;2022-10-16T14:54:50;26.10;46.10
4960;DHT22;2495;48.200;11.532;2022-10-16T15:00:01;25.90;47.20
4960;DHT22;2495;48.200;11.532;2022-10-16T15:05:14;25.70;46.50
4960;DHT22;2495;48.200;11.532;2022-10-16T15:10:24;25.60;47.00
4960;DHT22;2495;48.200;11.532;2022-10-16T15:15:37;25.50;47.80
4960;DHT22;2495;48.200;11.532;2022-10-16T15:20:45;25.30;48.30
4960;DHT22;2495;48.200;11.532;2022-10-16T16:05:03;24.20;53.20
4960;DHT22;2495;48.200;11.532;2022-10-16T16:42:50;23.20;57.40
4960;DHT22;2495;48.200;11.532;2022-10-16T16:49:11;23.10;58.10
4960;DHT22;2495;48.200;11.532;2022-10-16T16:54:50;22.90;58.70
4960;DHT22;2495;48.200;11.532;2022-10-16T17:06:25;22.90;60.30
4960;DHT22;2495;48.200;11.532;2022-10-16T17:11:36;22.80;60.20
4960;DHT22;2495;48.200;11.532;2022-10-16T17:16:37;22.70;60.20
4960;DHT22;2495;48.200;11.532;2022-10-16T17:21:39;22.50;60.40
4960;DHT22;2495;48.200;11.532;2022-10-16T17:26:41;22.40;60.50
4960;DHT22;2495;48.200;11.532;2022-10-16T17:31:42;22.30;60.80
4960;DHT22;2495;48.200;11.532;2022-10-16T17:36:44;22.20;60.90
4960;DHT22;2495;48.200;11.532;2022-10-16T17:41:46;22.10;61.30
4960;DHT22;2495;48.200;11.532;2022-10-16T17:46:48;21.90;63.80
4960;DHT22;2495;48.200;11.532;2022-10-16T17:51:49;21.80;63.20
4960;DHT22;2495;48.200;11.532;2022-10-16T17:56:50;21.70;63.50
4960;DHT22;2495;48.200;11.532;2022-10-16T18:01:51;21.60;63.90
4960;DHT22;2495;48.200;11.532;2022-10-16T18:06:52;21.60;64.60
4960;DHT22;2495;48.200;11.532;2022-10-16T18:11:54;21.50;64.90
4960;DHT22;2495;48.200;11.532;2022-10-16T18:16:55;21.50;65.50
4960;DHT22;2495;48.200;11.532;2022-10-16T18:21:57;21.40;65.60
4960;DHT22;2495;48.200;11.532;2022-10-16T18:26:58;21.30;65.80
4960;DHT22;2495;48.200;11.532;2022-10-16T18:31:59;21.30;66.50
4960;DHT22;2495;48.200;11.532;2022-10-16T18:37:01;21.20;67.00
4960;DHT22;2495;48.200;11.532;2022-10-16T18:42:02;21.10;67.40
4960;DHT22;2495;48.200;11.532;2022-10-16T18:47:04;21.00;67.60
4960;DHT22;2495;48.200;11.532;2022-10-16T18:52:08;20.70;68.10
4960;DHT22;2495;48.200;11.532;2022-10-16T18:57:10;20.80;68.30
4960;DHT22;2495;48.200;11.532;2022-10-16T19:02:21;20.80;68.70
4960;DHT22;2495;48.200;11.532;2022-10-16T19:07:22;20.60;69.40
4960;DHT22;2495;48.200;11.532;2022-10-16T19:12:24;20.50;69.70
4960;DHT22;2495;48.200;11.532;2022-10-16T19:17:25;20.40;70.10
4960;DHT22;2495;48.200;11.532;2022-10-16T19:22:27;20.30;71.10
4960;DHT22;2495;48.200;11.532;2022-10-16T19:27:33;20.20;71.50
4960;DHT22;2495;48.200;11.532;2022-10-16T19:32:37;20.10;72.00
4960;DHT22;2495;48.200;11.532;2022-10-16T19:37:41;20.10;72.10
4960;DHT22;2495;48.200;11.532;2022-10-16T19:42:43;20.00;72.80
4960;DHT22;2495;48.200;11.532;2022-10-16T19:47:44;19.80;72.80
4960;DHT22;2495;48.200;11.532;2022-10-16T19:52:45;19.80;72.70
4960;DHT22;2495;48.200;11.532;2022-10-16T19:57:47;19.70;73.50
4960;DHT22;2495;48.200;11.532;2022-10-16T20:02:51;19.60;74.00
4960;DHT22;2495;48.200;11.532;2022-10-16T20:07:52;19.50;74.00
4960;DHT22;2495;48.200;11.532;2022-10-16T20:12:54;19.50;74.20
4960;DHT22;2495;48.200;11.532;2022-10-16T20:17:55;19.40;74.10
4960;DHT22;2495;48.200;11.532;2022-10-16T20:22:56;19.40;74.60
4960;DHT22;2495;48.200;11.532;2022-10-16T20:27:58;19.30;75.00
4960;DHT22;2495;48.200;11.532;2022-10-16T20:32:59;19.30;75.00
4960;DHT22;2495;48.200;11.532;2022-10-16T20:38:01;19.30;75.50
4960;DHT22;2495;48.200;11.532;2022-10-16T20:43:02;19.20;75.10
4960;DHT22;2495;48.200;11.532;2022-10-16T20:48:05;19.10;75.50
4960;DHT22;2495;48.200;11.532;2022-10-16T20:53:06;19.10;76.40
4960;DHT22;2495;48.200;11.532;2022-10-16T20:58:08;19.10;76.40
4960;DHT22;2495;48.200;11.532;2022-10-16T21:03:09;19.10;76.70
4960;DHT22;2495;48.200;11.532;2022-10-16T21:08:10;19.00;77.00
4960;DHT22;2495;48.200;11.532;2022-10-16T21:13:12;18.90;77.10
4960;DHT22;2495;48.200;11.532;2022-10-16T21:23:50;18.80;78.00
